sensor_id;sensor_type;location;lat;lon;timestamp;pressure;altitude;pressure_sealevel;temperature;humidity
18504;BME280;9381;54.244;10.074;2023-04-07T00:02:35;101373.19;;;6.19;72.67
18504;BME280;9381;54.244;10.074;2023-04-07T00:07:35;101367.84;;;6.03;73.11
18504;BME280;9381;54.244;10.074;2023-04-07T00:12:36;101370.03;;;6.08;72.52
18504;BME280;9381;54.244;10.074;2023-04-07T00:17:36;101379.59;;;6.02;72.75
18504;BME280;9381;54.244;10.074;2023-04-07T00:22:36;101375.22;;;6.09;72.92
18504;BME280;9381;54.244;10.074;2023-04-07T00:27:37;101379.63;;;5.94;73.11
18504;BME280;9381;54.244;10.074;2023-04-07T00:32:37;101380.97;;;5.98;73.15
18504;BME280;9381;54.244;10.074;2023-04-07T00:37:37;101378.28;;;5.90;73.96
18504;BME280;9381;54.244;10.074;2023-04-07T00:42:38;101371.25;;;5.89;74.16
18504;BME280;9381;54.244;10.074;2023-04-07T00:47:38;101375.25;;;5.77;74.37
18504;BME280;9381;54.244;10.074;2023-04-07T00:52:39;101375.25;;;5.77;73.79
18504;BME280;9381;54.244;10.074;2023-04-07T00:57:40;101374.59;;;5.75;74.23
18504;BME280;9381;54.244;10.074;2023-04-07T01:02:42;101384.00;;;5.79;73.86
18504;BME280;9381;54.244;10.074;2023-04-07T01:08:14;101370.06;;;5.76;73.70
18504;BME280;9381;54.244;10.074;2023-04-07T01:13:26;101374.94;;;5.72;73.90
18504;BME280;9381;54.244;10.074;2023-04-07T01:18:31;101368.56;;;5.73;74.01
18504;BME280;9381;54.244;10.074;2023-04-07T01:29:32;101376.28;;;5.60;74.00
18504;BME280;9381;54.244;10.074;2023-04-07T01:34:33;101383.34;;;5.54;74.37
18504;BME280;9381;54.244;10.074;2023-04-07T01:39:37;101389.22;;;5.57;74.06
18504;BME280;9381;54.244;10.074;2023-04-07T01:44:38;101390.03;;;5.50;74.09
18504;BME280;9381;54.244;10.074;2023-04-07T01:49:39;101386.19;;;5.60;73.74
18504;BME280;9381;54.244;10.074;2023-04-07T01:54:40;101387.34;;;5.57;74.25
18504;BME280;9381;54.244;10.074;2023-04-07T01:59:40;101389.38;;;5.48;74.48
18504;BME280;9381;54.244;10.074;2023-04-07T02:04:51;101389.38;;;5.40;74.89
18504;BME280;9381;54.244;10.074;2023-04-07T02:09:57;101389.38;;;5.40;74.63
18504;BME280;9381;54.244;10.074;2023-04-07T02:14:59;101383.00;;;5.17;74.68
18504;BME280;9381;54.244;10.074;2023-04-07T02:20:00;101392.03;;;5.24;75.24
18504;BME280;9381;54.244;10.074;2023-04-07T02:25:27;101392.88;;;5.24;75.08
18504;BME280;9381;54.244;10.074;2023-04-07T02:30:28;101388.03;;;5.20;74.60
18504;BME280;9381;54.244;10.074;2023-04-07T02:35:28;101390.00;;;5.02;75.47
18504;BME280;9381;54.244;10.074;2023-04-07T02:40:28;101392.00;;;5.00;76.06
18504;BME280;9381;54.244;10.074;2023-04-07T02:45:30;101398.41;;;5.07;75.71
18504;BME280;9381;54.244;10.074;2023-04-07T02:50:30;101399.69;;;4.95;76.31
18504;BME280;9381;54.244;10.074;2023-04-07T02:55:30;101404.03;;;4.88;76.92
18504;BME280;9381;54.244;10.074;2023-04-07T03:00:30;101401.03;;;4.91;77.14
18504;BME280;9381;54.244;10.074;2023-04-07T03:05:31;101406.09;;;5.02;76.65
18504;BME280;9381;54.244;10.074;2023-04-07T03:10:31;101405.44;;;5.08;76.88
18504;BME280;9381;54.244;10.074;2023-04-07T03:15:31;101406.09;;;5.02;76.91
18504;BME280;9381;54.244;10.074;2023-04-07T03:20:32;101417.47;;;5.04;76.91
18504;BME280;9381;54.244;10.074;2023-04-07T03:25:32;101410.13;;;4.98;77.59
18504;BME280;9381;54.244;10.074;2023-04-07T03:30:32;101420.44;;;4.85;77.87
18504;BME280;9381;54.244;10.074;2023-04-07T03:35:33;101414.75;;;4.88;78.16
18504;BME280;9381;54.244;10.074;2023-04-07T03:40:33;101409.72;;;4.85;78.03
18504;BME280;9381;54.244;10.074;2023-04-07T03:45:34;101413.75;;;4.81;78.07
18504;BME280;9381;54.244;10.074;2023-04-07T03:50:35;101419.13;;;4.81;78.15
18504;BME280;9381;54.244;10.074;2023-04-07T03:55:35;101424.09;;;4.76;78.31
18504;BME280;9381;54.244;10.074;2023-04-07T04:00:35;101431.13;;;4.77;78.58
18504;BME280;9381;54.244;10.074;2023-04-07T04:05:36;101424.78;;;4.78;78.76
18504;BME280;9381;54.244;10.074;2023-04-07T04:10:36;101429.13;;;4.71;78.93
18504;BME280;9381;54.244;10.074;2023-04-07T04:15:36;101433.25;;;4.65;78.45
18504;BME280;9381;54.244;10.074;2023-04-07T04:20:37;101443.97;;;4.65;78.60
18504;BME280;9381;54.244;10.074;2023-04-07T04:25:37;101443.50;;;4.70;79.20
18504;BME280;9381;54.244;10.074;2023-04-07T04:30:40;101455.06;;;4.70;78.91
18504;BME280;9381;54.244;10.074;2023-04-07T04:35:40;101459.56;;;4.70;78.85
18504;BME280;9381;54.244;10.074;2023-04-07T04:40:41;101462.44;;;4.68;79.31
18504;BME280;9381;54.244;10.074;2023-04-07T04:45:41;101463.69;;;4.56;79.94
18504;BME280;9381;54.244;10.074;2023-04-07T04:50:41;101478.94;;;4.56;79.73
18504;BME280;9381;54.244;10.074;2023-04-07T04:55:42;101478.09;;;4.55;80.08
18504;BME280;9381;54.244;10.074;2023-04-07T05:00:46;101484.84;;;4.59;80.23
18504;BME280;9381;54.244;10.074;2023-04-07T05:05:46;101493.34;;;4.55;80.57
18504;BME280;9381;54.244;10.074;2023-04-07T05:10:47;101496.59;;;4.66;80.42
18504;BME280;9381;54.244;10.074;2023-04-07T05:15:48;101496.75;;;4.65;80.76
18504;BME280;9381;54.244;10.074;2023-04-07T05:20:48;101508.13;;;4.67;81.41
18504;BME280;9381;54.244;10.074;2023-04-07T05:25:49;101514.50;;;4.66;82.62
18504;BME280;9381;54.244;10.074;2023-04-07T05:30:49;101517.19;;;4.66;83.62
18504;BME280;9381;54.244;10.074;2023-04-07T05:35:50;101518.94;;;4.83;83.11
18504;BME280;9381;54.244;10.074;2023-04-07T05:40:50;101519.28;;;4.88;83.00
18504;BME280;9381;54.244;10.074;2023-04-07T05:45:50;101531.75;;;5.05;82.16
18504;BME280;9381;54.244;10.074;2023-04-07T05:50:51;101532.97;;;5.18;81.79
18504;BME280;9381;54.244;10.074;2023-04-07T05:55:51;101531.84;;;5.29;81.05
18504;BME280;9381;54.244;10.074;2023-04-07T06:00:51;101543.09;;;5.32;81.35
18504;BME280;9381;54.244;10.074;2023-04-07T06:05:52;101544.97;;;5.40;81.50
18504;BME280;9381;54.244;10.074;2023-04-07T06:10:52;101559.44;;;5.55;81.81
18504;BME280;9381;54.244;10.074;2023-04-07T06:15:54;101564.97;;;5.61;81.38
18504;BME280;9381;54.244;10.074;2023-04-07T06:20:55;101572.41;;;5.75;80.95
18504;BME280;9381;54.244;10.074;2023-04-07T06:25:56;101579.16;;;5.95;81.08
18504;BME280;9381;54.244;10.074;2023-04-07T06:30:57;101586.88;;;5.98;80.22
18504;BME280;9381;54.244;10.074;2023-04-07T06:35:57;101602.13;;;6.05;79.53
18504;BME280;9381;54.244;10.074;2023-04-07T06:40:57;101601.81;;;6.24;77.74
18504;BME280;9381;54.244;10.074;2023-04-07T06:45:58;101612.25;;;6.35;78.27
18504;BME280;9381;54.244;10.074;2023-04-07T06:50:58;101621.63;;;6.47;77.02
18504;BME280;9381;54.244;10.074;2023-04-07T06:56:09;101618.94;;;6.63;76.13
18504;BME280;9381;54.244;10.074;2023-04-07T07:01:10;101622.28;;;6.81;75.08
18504;BME280;9381;54.244;10.074;2023-04-07T07:06:10;101627.47;;;6.91;74.12
18504;BME280;9381;54.244;10.074;2023-04-07T07:11:11;101624.22;;;7.11;73.67
18504;BME280;9381;54.244;10.074;2023-04-07T07:16:11;101631.41;;;7.19;72.27
18504;BME280;9381;54.244;10.074;2023-04-07T07:21:11;101635.22;;;7.40;72.62
18504;BME280;9381;54.244;10.074;2023-04-07T07:26:12;101639.91;;;7.46;71.10
18504;BME280;9381;54.244;10.074;2023-04-07T07:31:12;101640.94;;;7.76;70.61
18504;BME280;9381;54.244;10.074;2023-04-07T07:36:14;101640.03;;;7.91;69.55
18504;BME280;9381;54.244;10.074;2023-04-07T07:41:14;101653.66;;;8.20;68.46
18504;BME280;9381;54.244;10.074;2023-04-07T07:46:14;101658.63;;;8.31;67.23
18504;BME280;9381;54.244;10.074;2023-04-07T07:51:15;101653.03;;;8.41;65.56
18504;BME280;9381;54.244;10.074;2023-04-07T07:56:15;101661.44;;;8.60;65.38
18504;BME280;9381;54.244;10.074;2023-04-07T08:01:16;101653.84;;;8.78;64.25
18504;BME280;9381;54.244;10.074;2023-04-07T08:06:16;101664.69;;;9.07;62.64
18504;BME280;9381;54.244;10.074;2023-04-07T08:11:16;101672.94;;;9.13;60.82
18504;BME280;9381;54.244;10.074;2023-04-07T08:16:17;101669.22;;;9.43;62.79
18504;BME280;9381;54.244;10.074;2023-04-07T08:21:18;101677.28;;;9.58;61.97
18504;BME280;9381;54.244;10.074;2023-04-07T08:26:20;101673.84;;;9.64;61.87
18504;BME280;9381;54.244;10.074;2023-04-07T08:31:20;101670.94;;;9.80;58.71
18504;BME280;9381;54.244;10.074;2023-04-07T08:36:21;101686.75;;;9.97;57.47
18504;BME280;9381;54.244;10.074;2023-04-07T08:41:47;101677.22;;;10.16;59.35
18504;BME280;9381;54.244;10.074;2023-04-07T08:46:50;101680.97;;;10.36;57.16
18504;BME280;9381;54.244;10.074;2023-04-07T08:51:53;101681.47;;;10.25;57.55
18504;BME280;9381;54.244;10.074;2023-04-07T08:56:53;101685.03;;;10.46;57.87
18504;BME280;9381;54.244;10.074;2023-04-07T09:01:54;101679.69;;;10.74;56.81
18504;BME280;9381;54.244;10.074;2023-04-07T09:06:55;101689.34;;;11.10;56.24
18504;BME280;9381;54.244;10.074;2023-04-07T09:11:55;101679.47;;;11.24;56.17
18504;BME280;9381;54.244;10.074;2023-04-07T09:16:55;101678.94;;;11.07;56.47
18504;BME280;9381;54.244;10.074;2023-04-07T09:21:56;101682.81;;;11.26;54.50
18504;BME280;9381;54.244;10.074;2023-04-07T09:27:17;101681.16;;;11.31;51.07
18504;BME280;9381;54.244;10.074;2023-04-07T09:32:34;101672.84;;;11.33;50.65
18504;BME280;9381;54.244;10.074;2023-04-07T09:37:37;101679.19;;;11.46;53.68
18504;BME280;9381;54.244;10.074;2023-04-07T09:42:45;101672.63;;;11.62;53.62
18504;BME280;9381;54.244;10.074;2023-04-07T09:47:45;101671.13;;;11.99;55.53
18504;BME280;9381;54.244;10.074;2023-04-07T09:52:50;101667.94;;;12.62;53.16
18504;BME280;9381;54.244;10.074;2023-04-07T09:57:53;101672.44;;;12.16;52.69
18504;BME280;9381;54.244;10.074;2023-04-07T10:02:57;101667.09;;;12.42;55.25
18504;BME280;9381;54.244;10.074;2023-04-07T10:07:57;101653.38;;;12.76;55.25
18504;BME280;9381;54.244;10.074;2023-04-07T10:13:03;101671.75;;;12.74;52.89
18504;BME280;9381;54.244;10.074;2023-04-07T10:18:05;101662.59;;;13.01;52.85
18504;BME280;9381;54.244;10.074;2023-04-07T10:23:20;101673.56;;;13.58;53.08
18504;BME280;9381;54.244;10.074;2023-04-07T10:28:23;101672.00;;;13.88;49.74
18504;BME280;9381;54.244;10.074;2023-04-07T10:33:50;101670.53;;;13.86;47.71
18504;BME280;9381;54.244;10.074;2023-04-07T10:44:08;101683.38;;;15.09;43.57
18504;BME280;9381;54.244;10.074;2023-04-07T10:49:09;101679.38;;;14.87;40.27
18504;BME280;9381;54.244;10.074;2023-04-07T10:54:18;101678.75;;;14.61;44.69
18504;BME280;9381;54.244;10.074;2023-04-07T10:59:22;101671.88;;;15.07;42.12
18504;BME280;9381;54.244;10.074;2023-04-07T11:04:35;101676.72;;;15.05;43.89
18504;BME280;9381;54.244;10.074;2023-04-07T11:09:36;101673.88;;;15.78;45.54
18504;BME280;9381;54.244;10.074;2023-04-07T11:14:36;101683.69;;;15.68;45.41
18504;BME280;9381;54.244;10.074;2023-04-07T11:19:52;101680.00;;;15.92;46.44
18504;BME280;9381;54.244;10.074;2023-04-07T11:24:53;101693.34;;;15.21;46.54
18504;BME280;9381;54.244;10.074;2023-04-07T11:29:54;101686.63;;;15.84;46.30
18504;BME280;9381;54.244;10.074;2023-04-07T11:34:54;101693.66;;;15.56;47.60
18504;BME280;9381;54.244;10.074;2023-04-07T11:39:56;101693.69;;;15.07;43.87
18504;BME280;9381;54.244;10.074;2023-04-07T11:44:57;101698.81;;;15.64;44.27
18504;BME280;9381;54.244;10.074;2023-04-07T11:49:57;101698.88;;;15.57;45.51
18504;BME280;9381;54.244;10.074;2023-04-07T11:54:58;101703.38;;;15.03;47.44
18504;BME280;9381;54.244;10.074;2023-04-07T12:00:11;101710.97;;;15.19;45.64
18504;BME280;9381;54.244;10.074;2023-04-07T12:05:11;101713.53;;;15.14;47.03
18504;BME280;9381;54.244;10.074;2023-04-07T12:10:23;101714.25;;;15.03;47.56
18504;BME280;9381;54.244;10.074;2023-04-07T12:15:25;101719.72;;;15.27;45.84
18504;BME280;9381;54.244;10.074;2023-04-07T12:20:26;101716.97;;;15.52;45.09
18504;BME280;9381;54.244;10.074;2023-04-07T12:25:26;101722.34;;;16.48;43.47
18504;BME280;9381;54.244;10.074;2023-04-07T12:30:26;101717.97;;;16.77;42.78
18504;BME280;9381;54.244;10.074;2023-04-07T12:35:27;101718.75;;;16.00;41.93
18504;BME280;9381;54.244;10.074;2023-04-07T12:40:27;101731.25;;;14.68;47.10
18504;BME280;9381;54.244;10.074;2023-04-07T12:45:28;101734.81;;;14.99;49.28
18504;BME280;9381;54.244;10.074;2023-04-07T12:50:30;101724.72;;;15.30;48.45
18504;BME280;9381;54.244;10.074;2023-04-07T12:55:31;101730.44;;;14.67;48.38
18504;BME280;9381;54.244;10.074;2023-04-07T13:00:35;101730.41;;;14.36;49.41
18504;BME280;9381;54.244;10.074;2023-04-07T13:05:35;101726.38;;;13.88;51.53
18504;BME280;9381;54.244;10.074;2023-04-07T13:10:36;101714.72;;;13.75;51.07
18504;BME280;9381;54.244;10.074;2023-04-07T13:15:36;101724.59;;;13.43;49.68
18504;BME280;9381;54.244;10.074;2023-04-07T13:20:36;101731.09;;;13.16;51.42
18504;BME280;9381;54.244;10.074;2023-04-07T13:25:37;101723.41;;;14.03;50.61
18504;BME280;9381;54.244;10.074;2023-04-07T13:30:38;101725.91;;;14.04;50.48
18504;BME280;9381;54.244;10.074;2023-04-07T13:35:38;101728.97;;;13.57;51.69
18504;BME280;9381;54.244;10.074;2023-04-07T13:40:38;101731.53;;;13.13;55.58
18504;BME280;9381;54.244;10.074;2023-04-07T13:45:39;101719.59;;;13.40;54.46
18504;BME280;9381;54.244;10.074;2023-04-07T13:50:39;101729.84;;;13.25;54.47
18504;BME280;9381;54.244;10.074;2023-04-07T13:55:39;101728.16;;;13.24;52.78
18504;BME280;9381;54.244;10.074;2023-04-07T14:00:40;101725.25;;;13.06;54.24
18504;BME280;9381;54.244;10.074;2023-04-07T14:05:40;101740.97;;;12.44;53.37
18504;BME280;9381;54.244;10.074;2023-04-07T14:10:40;101727.44;;;11.91;56.83
18504;BME280;9381;54.244;10.074;2023-04-07T14:15:41;101740.13;;;11.57;59.78
18504;BME280;9381;54.244;10.074;2023-04-07T14:20:42;101736.09;;;10.98;61.54
18504;BME280;9381;54.244;10.074;2023-04-07T14:25:42;101739.47;;;10.79;63.62
18504;BME280;9381;54.244;10.074;2023-04-07T14:30:43;101729.38;;;10.87;64.18
18504;BME280;9381;54.244;10.074;2023-04-07T14:35:43;101731.22;;;10.87;65.34
18504;BME280;9381;54.244;10.074;2023-04-07T14:40:43;101738.56;;;10.72;66.90
18504;BME280;9381;54.244;10.074;2023-04-07T14:45:44;101740.59;;;10.28;68.18
18504;BME280;9381;54.244;10.074;2023-04-07T14:50:45;101739.50;;;10.08;70.49
18504;BME280;9381;54.244;10.074;2023-04-07T14:55:45;101755.28;;;10.04;71.11
18504;BME280;9381;54.244;10.074;2023-04-07T15:00:46;101745.13;;;9.77;74.27
18504;BME280;9381;54.244;10.074;2023-04-07T15:05:46;101740.91;;;9.46;76.49
18504;BME280;9381;54.244;10.074;2023-04-07T15:10:46;101749.75;;;9.40;78.19
18504;BME280;9381;54.244;10.074;2023-04-07T15:15:46;101746.75;;;9.35;78.83
18504;BME280;9381;54.244;10.074;2023-04-07T15:20:47;101760.59;;;9.17;79.16
18504;BME280;9381;54.244;10.074;2023-04-07T15:25:50;101758.41;;;9.35;79.32
18504;BME280;9381;54.244;10.074;2023-04-07T15:30:55;101762.88;;;9.06;81.73
18504;BME280;9381;54.244;10.074;2023-04-07T15:35:55;101767.41;;;8.91;82.31
18504;BME280;9381;54.244;10.074;2023-04-07T15:40:56;101767.47;;;8.83;82.79
18504;BME280;9381;54.244;10.074;2023-04-07T15:45:56;101765.78;;;8.82;82.91
18504;BME280;9381;54.244;10.074;2023-04-07T15:50:57;101757.50;;;8.83;84.31
18504;BME280;9381;54.244;10.074;2023-04-07T15:55:57;101772.88;;;8.83;83.82
18504;BME280;9381;54.244;10.074;2023-04-07T16:00:57;101765.19;;;8.72;83.55
18504;BME280;9381;54.244;10.074;2023-04-07T16:05:58;101775.75;;;8.51;84.75
18504;BME280;9381;54.244;10.074;2023-04-07T16:10:59;101771.72;;;8.55;85.62
18504;BME280;9381;54.244;10.074;2023-04-07T16:15:59;101767.75;;;8.35;86.61
18504;BME280;9381;54.244;10.074;2023-04-07T16:21:00;101774.63;;;8.07;88.85
18504;BME280;9381;54.244;10.074;2023-04-07T16:26:00;101780.66;;;8.17;88.95
18504;BME280;9381;54.244;10.074;2023-04-07T16:31:00;101786.38;;;8.14;89.32
18504;BME280;9381;54.244;10.074;2023-04-07T16:36:01;101791.13;;;8.20;88.68
18504;BME280;9381;54.244;10.074;2023-04-07T16:41:02;101792.00;;;8.05;89.55
18504;BME280;9381;54.244;10.074;2023-04-07T16:46:02;101801.03;;;7.73;92.80
18504;BME280;9381;54.244;10.074;2023-04-07T16:51:05;101802.69;;;7.82;92.06
18504;BME280;9381;54.244;10.074;2023-04-07T16:56:05;101815.84;;;7.61;92.88
18504;BME280;9381;54.244;10.074;2023-04-07T17:01:08;101809.78;;;7.67;92.70
18504;BME280;9381;54.244;10.074;2023-04-07T17:06:08;101811.09;;;7.71;92.73
18504;BME280;9381;54.244;10.074;2023-04-07T17:11:09;101818.53;;;7.61;94.56
18504;BME280;9381;54.244;10.074;2023-04-07T17:16:13;101833.06;;;7.44;96.03
18504;BME280;9381;54.244;10.074;2023-04-07T17:21:13;101842.47;;;7.48;97.11
18504;BME280;9381;54.244;10.074;2023-04-07T17:26:16;101838.44;;;7.36;97.49
18504;BME280;9381;54.244;10.074;2023-04-07T17:31:17;101852.22;;;7.33;99.32
18504;BME280;9381;54.244;10.074;2023-04-07T17:36:17;101864.34;;;7.53;97.83
18504;BME280;9381;54.244;10.074;2023-04-07T17:41:18;101865.34;;;7.36;99.28
18504;BME280;9381;54.244;10.074;2023-04-07T17:46:22;101866.38;;;7.27;99.60
18504;BME280;9381;54.244;10.074;2023-04-07T17:51:26;101873.06;;;7.31;100.00
18504;BME280;9381;54.244;10.074;2023-04-07T17:56:26;101879.81;;;7.35;100.00
18504;BME280;9381;54.244;10.074;2023-04-07T18:01:27;101883.50;;;7.18;100.00
18504;BME280;9381;54.244;10.074;2023-04-07T18:06:28;101876.78;;;7.38;99.62
18504;BME280;9381;54.244;10.074;2023-04-07T18:11:28;101887.72;;;7.45;99.45
18504;BME280;9381;54.244;10.074;2023-04-07T18:16:29;101883.19;;;7.37;99.40
18504;BME280;9381;54.244;10.074;2023-04-07T18:21:29;101885.53;;;7.32;99.28
18504;BME280;9381;54.244;10.074;2023-04-07T18:26:30;101901.66;;;7.00;100.00
18504;BME280;9381;54.244;10.074;2023-04-07T18:31:31;101895.91;;;7.03;100.00
18504;BME280;9381;54.244;10.074;2023-04-07T18:36:31;101902.97;;;7.04;100.00
18504;BME280;9381;54.244;10.074;2023-04-07T18:41:32;101908.53;;;7.11;100.00
18504;BME280;9381;54.244;10.074;2023-04-07T18:46:32;101917.13;;;6.98;100.00
18504;BME280;9381;54.244;10.074;2023-04-07T18:51:33;101922.47;;;7.06;100.00
18504;BME280;9381;54.244;10.074;2023-04-07T18:56:34;101914.63;;;7.13;100.00
18504;BME280;9381;54.244;10.074;2023-04-07T19:01:35;101921.47;;;6.99;100.00
18504;BME280;9381;54.244;10.074;2023-04-07T19:06:35;101930.56;;;7.06;100.00
18504;BME280;9381;54.244;10.074;2023-04-07T19:11:36;101927.88;;;7.06;100.00
18504;BME280;9381;54.244;10.074;2023-04-07T19:16:36;101940.31;;;7.07;100.00
18504;BME280;9381;54.244;10.074;2023-04-07T19:21:37;101935.25;;;7.04;100.00
18504;BME280;9381;54.244;10.074;2023-04-07T19:26:39;101940.00;;;7.34;100.00
18504;BME280;9381;54.244;10.074;2023-04-07T19:31:40;101934.81;;;7.33;100.00
18504;BME280;9381;54.244;10.074;2023-04-07T19:36:40;101936.13;;;7.13;100.00
18504;BME280;9381;54.244;10.074;2023-04-07T19:41:40;101936.47;;;7.18;100.00
18504;BME280;9381;54.244;10.074;2023-04-07T19:46:41;101935.59;;;7.01;100.00
18504;BME280;9381;54.244;10.074;2023-04-07T19:51:42;101942.47;;;6.96;100.00
18504;BME280;9381;54.244;10.074;2023-04-07T19:56:42;101954.56;;;6.92;100.00
18504;BME280;9381;54.244;10.074;2023-04-07T20:01:42;101955.03;;;6.87;100.00
18504;BME280;9381;54.244;10.074;2023-04-07T20:06:42;101964.81;;;6.96;100.00
18504;BME280;9381;54.244;10.074;2023-04-07T20:11:44;101955.09;;;7.03;100.00
18504;BME280;9381;54.244;10.074;2023-04-07T20:16:44;101961.16;;;7.05;100.00
18504;BME280;9381;54.244;10.074;2023-04-07T20:21:44;101957.47;;;6.98;100.00
18504;BME280;9381;54.244;10.074;2023-04-07T20:26:45;101958.63;;;6.96;100.00
18504;BME280;9381;54.244;10.074;2023-04-07T20:31:45;101957.69;;;6.79;100.00
18504;BME280;9381;54.244;10.074;2023-04-07T20:36:46;101964.91;;;6.71;100.00
18504;BME280;9381;54.244;10.074;2023-04-07T20:41:48;101962.06;;;6.72;100.00
18504;BME280;9381;54.244;10.074;2023-04-07T20:46:48;101963.13;;;6.87;100.00
18504;BME280;9381;54.244;10.074;2023-04-07T20:51:48;101959.44;;;6.96;100.00
18504;BME280;9381;54.244;10.074;2023-04-07T20:56:49;101963.97;;;6.88;100.00
18504;BME280;9381;54.244;10.074;2023-04-07T21:01:49;101954.75;;;6.90;100.00
18504;BME280;9381;54.244;10.074;2023-04-07T21:06:50;101950.50;;;6.80;100.00
18504;BME280;9381;54.244;10.074;2023-04-07T21:11:50;101959.13;;;6.91;100.00
18504;BME280;9381;54.244;10.074;2023-04-07T21:16:50;101951.88;;;6.92;100.00
18504;BME280;9381;54.244;10.074;2023-04-07T21:21:51;101957.28;;;7.08;100.00
18504;BME280;9381;54.244;10.074;2023-04-07T21:26:54;101965.91;;;7.19;100.00
18504;BME280;9381;54.244;10.074;2023-04-07T21:31:55;101961.31;;;7.12;100.00
18504;BME280;9381;54.244;10.074;2023-04-07T21:36:55;101953.97;;;7.38;100.00
18504;BME280;9381;54.244;10.074;2023-04-07T21:41:55;101961.03;;;7.39;100.00
18504;BME280;9381;54.244;10.074;2023-04-07T21:46:56;101961.94;;;7.55;100.00
18504;BME280;9381;54.244;10.074;2023-04-07T21:51:56;101969.13;;;7.39;100.00
18504;BME280;9381;54.244;10.074;2023-04-07T21:56:58;101968.63;;;7.51;100.00
18504;BME280;9381;54.244;10.074;2023-04-07T22:02:00;101968.63;;;7.43;100.00
18504;BME280;9381;54.244;10.074;2023-04-07T22:07:01;101964.09;;;7.44;100.00
18504;BME280;9381;54.244;10.074;2023-04-07T22:12:02;101959.72;;;7.35;100.00
18504;BME280;9381;54.244;10.074;2023-04-07T22:17:02;101963.25;;;7.43;100.00
18504;BME280;9381;54.244;10.074;2023-04-07T22:22:03;101966.63;;;7.45;100.00
18504;BME280;9381;54.244;10.074;2023-04-07T22:27:03;101959.38;;;7.54;100.00
18504;BME280;9381;54.244;10.074;2023-04-07T22:32:03;101960.91;;;7.56;100.00
18504;BME280;9381;54.244;10.074;2023-04-07T22:37:04;101960.56;;;7.51;100.00
18504;BME280;9381;54.244;10.074;2023-04-07T22:42:05;101964.63;;;7.63;100.00
18504;BME280;9381;54.244;10.074;2023-04-07T22:47:05;101964.78;;;7.70;100.00
18504;BME280;9381;54.244;10.074;2023-04-07T22:52:05;101968.13;;;7.56;100.00
18504;BME280;9381;54.244;10.074;2023-04-07T22:57:06;101973.38;;;7.65;100.00
18504;BME280;9381;54.244;10.074;2023-04-07T23:02:06;101977.38;;;7.61;100.00
18504;BME280;9381;54.244;10.074;2023-04-07T23:07:09;101971.00;;;7.70;100.00
18504;BME280;9381;54.244;10.074;2023-04-07T23:12:09;101974.38;;;7.64;100.00
18504;BME280;9381;54.244;10.074;2023-04-07T23:17:10;101971.34;;;7.59;100.00
18504;BME280;9381;54.244;10.074;2023-04-07T23:22:11;101971.00;;;7.70;100.00
18504;BME280;9381;54.244;10.074;2023-04-07T23:27:11;101979.28;;;7.69;100.00
18504;BME280;9381;54.244;10.074;2023-04-07T23:32:12;101968.50;;;7.61;100.00
18504;BME280;9381;54.244;10.074;2023-04-07T23:37:12;101978.41;;;7.60;100.00
18504;BME280;9381;54.244;10.074;2023-04-07T23:42:13;101965.13;;;7.83;100.00
18504;BME280;9381;54.244;10.074;2023-04-07T23:47:13;101959.22;;;7.95;100.00
18504;BME280;9381;54.244;10.074;2023-04-07T23:52:14;101958.56;;;7.85;100.00
18504;BME280;9381;54.244;10.074;2023-04-07T23:57:15;101952.84;;;7.72;100.00
